createdAt,value
2019-05-13T05:11:34.213Z,1.71
2019-05-13T05:21:34.922Z,2.75
2019-05-13T05:31:34.479Z,2.47
2019-05-13T05:41:34.731Z,2.93
2019-05-13T05:51:34.405Z,3.78
2019-05-13T06:01:37.225Z,3.50
2019-05-13T06:11:36.995Z,3.52
2019-05-13T06:21:34.192Z,3.81
2019-05-13T06:31:34.397Z,4.55
2019-05-13T06:41:34.537Z,3.95
2019-05-13T06:51:34.826Z,4.57
2019-05-13T07:01:34.483Z,5.56
2019-05-13T07:11:34.376Z,6.59
2019-05-13T07:21:34.431Z,6.53
2019-05-13T07:31:34.376Z,6.30
2019-05-13T07:41:39.289Z,6.27
2019-05-13T07:51:34.918Z,6.53
2019-05-13T08:01:34.252Z,7.09
2019-05-13T08:11:40.154Z,7.00
2019-05-13T08:21:34.910Z,6.97
2019-05-13T08:31:35.048Z,9.21
2019-05-13T08:41:34.890Z,7.97
2019-05-13T08:51:34.866Z,9.87
2019-05-13T09:01:36.744Z,9.24
2019-05-13T09:11:34.889Z,8.79
2019-05-13T09:21:34.931Z,9.00
2019-05-13T09:31:35.098Z,10.16
2019-05-13T09:41:40.886Z,11.24
2019-05-13T09:51:35.270Z,9.96
2019-05-13T10:01:35.026Z,10.44
2019-05-13T10:11:34.964Z,9.05
2019-05-13T10:21:34.642Z,8.83
2019-05-13T10:31:34.814Z,10.45
2019-05-13T10:41:35.204Z,12.05
2019-05-13T10:51:34.239Z,10.79
2019-05-13T11:01:34.699Z,10.11
2019-05-13T11:11:34.878Z,12.36
2019-05-13T11:21:34.850Z,12.19
2019-05-13T11:31:35.142Z,11.33
2019-05-13T11:41:34.818Z,10.65
2019-05-13T11:51:34.960Z,11.07
2019-05-13T12:01:34.434Z,9.96
2019-05-13T12:11:34.598Z,11.21
2019-05-13T12:21:41.695Z,9.83
2019-05-13T12:31:34.842Z,9.95
2019-05-13T12:41:34.901Z,11.03
2019-05-13T12:51:35.073Z,11.32
2019-05-13T13:01:35.048Z,11.18
2019-05-13T13:11:35.068Z,9.76
2019-05-13T13:21:37.710Z,11.51
2019-05-13T13:31:34.956Z,10.84
2019-05-13T13:41:34.939Z,10.96
2019-05-13T13:51:34.696Z,10.85
2019-05-13T14:01:34.960Z,10.60
2019-05-13T14:11:34.836Z,10.71
2019-05-13T14:21:34.914Z,9.96
2019-05-13T14:31:34.867Z,10.81
2019-05-13T14:41:33.896Z,11.47
2019-05-13T14:51:34.079Z,11.28
2019-05-13T15:01:34.163Z,10.58
2019-05-13T15:11:34.125Z,10.99
2019-05-13T15:21:34.426Z,10.87
2019-05-13T15:31:34.168Z,9.87
2019-05-13T15:41:34.027Z,9.83
2019-05-13T15:51:34.708Z,9.83
2019-05-13T16:01:34.054Z,9.28
2019-05-13T16:11:34.237Z,10.76
2019-05-13T16:21:34.082Z,9.91
2019-05-13T16:31:34.691Z,9.01
2019-05-13T16:41:34.488Z,9.29
2019-05-13T16:51:34.615Z,8.87
2019-05-13T17:01:34.702Z,9.62
2019-05-13T17:11:34.561Z,9.04
2019-05-13T17:21:36.081Z,7.60
2019-05-13T17:31:34.398Z,8.49
2019-05-13T17:41:34.344Z,7.53
2019-05-13T17:51:34.630Z,7.77
2019-05-13T18:01:34.494Z,8.22
2019-05-13T18:11:34.470Z,7.72
2019-05-13T18:21:35.262Z,7.62
2019-05-13T18:31:34.701Z,7.20
2019-05-13T18:41:34.443Z,6.69
2019-05-13T18:51:34.335Z,6.83
2019-05-13T19:01:34.398Z,7.07
